This is the latest recevied weather packets stored in our database for station/object N0RRC. If no packets are shown the sender has not sent any weather packets the latest 10 day(s).
| Time | Temp. | Humidity | Pressure | Rain* | Wind** | Luminosity | Snow |
|---|---|---|---|---|---|---|---|
| 1777534035 | 1.67° C | 95% | 1015.3 hPa | 0 mm | - | 0 W/m² | - |
| 1777531016 | 2.22° C | 95% | 1015.8 hPa | 0 mm | - | 0 W/m² | - |
| 1777529815 | 2.22° C | 95% | 1015.8 hPa | 0 mm | - | 0 W/m² | - |
| 1777528015 | 2.78° C | 95% | 1015.9 hPa | 0 mm | - | 0 W/m² | - |
| 1777527435 | 2.78° C | 94% | 1015.9 hPa | 0 mm | - | 0 W/m² | - |
| 1777514815 | 4.44° C | 89% | 1015.1 hPa | 0 mm | - | 0 W/m² | - |
| 1777511835 | 5° C | 91% | 1015.1 hPa | 0.51 mm | - | 0 W/m² | - |
| 1777508235 | 6.67° C | 88% | 1015 hPa | 0.51 mm | - | 5 W/m² | - |
| 1777506416 | 7.22° C | 85% | 1014.7 hPa | 0 mm | - | 16 W/m² | - |
| 1777502857 | 7.22° C | 83% | 1014.6 hPa | 0 mm | - | 100 W/m² | - |
| 1777502217 | 7.22° C | 83% | 1014.5 hPa | 0 mm | - | 109 W/m² | - |
| 1777498617 | 7.22° C | 82% | 1014.3 hPa | 0 mm | - | 153 W/m² | - |
| 1777493817 | 6.67° C | 85% | 1014.6 hPa | 0 mm | - | 269 W/m² | - |
| 1777491417 | 6.11° C | 87% | 1014.4 hPa | 0.25 mm | - | 159 W/m² | - |
| 1777490218 | 6.11° C | 87% | 1014.2 hPa | 0.25 mm | - | 230 W/m² | - |
| 1777489617 | 6.11° C | 89% | 1014.3 hPa | 0.25 mm | - | 278 W/m² | - |
| 1777484817 | 5.56° C | 90% | 1014.1 hPa | 0.51 mm | - | 143 W/m² | - |
| 1777483617 | 6.11° C | 89% | 1014.1 hPa | 1.02 mm | - | 103 W/m² | - |
| 1777483018 | 6.11° C | 89% | 1014.1 hPa | 0.76 mm | - | 73 W/m² | - |
| 1777478816 | 6.67° C | 85% | 1014.2 hPa | 0 mm | - | 61 W/m² | - |
| 1777477616 | 6.67° C | 84% | 1014.1 hPa | 0 mm | - | 72 W/m² | - |
| 1777474616 | 7.22° C | 82% | 1013.8 hPa | 0 mm | - | 161 W/m² | - |
| 1777469216 | 6.11° C | 85% | 1013.6 hPa | 0 mm | - | 169 W/m² | - |
| 1777462616 | 6.67° C | 83% | 1013.4 hPa | 0 mm | - | 26 W/m² | - |
| 1777460216 | 7.22° C | 79% | 1013.1 hPa | 0 mm | - | 0 W/m² | - |
* Rain latest hour (hover to see other rain measurements)
** Current wind speed in m/s (hover to see current wind gust speed)